Zellwood, Florida
Current Conditions -  °F | °C
As of 3:53 PM on Saturday 20 Dec 2014 (Local Time) from KLEE Reporting Station
Overcast Overcast  
Wind Chill: 74°   Ceiling: 10000
Heat Index: 74°   Visibility: 10mi
Dew Point: 57°   Wind: 3mph
Humidity: 55%   Direction: 80°E
Pressure: 30.05"   Gusts: NA
Location:  28.73°N, 81.6°W
Report Text: KLEE 202053Z AUTO 08003KT 10SM OVC100 23/14 A3005 RMK AO2 SLP175 T02330139 55010
Loading
Personal Weather Stations






























Interactive Weather Map New forecast layout! Learn more

10-Day Weather Forecast

Advertisements
Track Severe Weather on mobile